sensor_id;sensor_type;location;lat;lon;timestamp;pressure;altitude;pressure_sealevel;temperature;humidity
5691;BME280;2870;42.680;23.364;2023-05-02T00:01:13;95429.84;;;12.74;76.28
5691;BME280;2870;42.680;23.364;2023-05-02T00:03:40;95433.66;;;12.54;77.43
5691;BME280;2870;42.680;23.364;2023-05-02T00:06:09;95440.03;;;12.39;78.54
5691;BME280;2870;42.680;23.364;2023-05-02T00:08:36;95438.91;;;12.50;78.48
5691;BME280;2870;42.680;23.364;2023-05-02T00:11:03;95434.91;;;12.68;77.47
5691;BME280;2870;42.680;23.364;2023-05-02T00:13:30;95433.44;;;12.52;77.94
5691;BME280;2870;42.680;23.364;2023-05-02T00:15:57;95434.63;;;12.18;79.76
5691;BME280;2870;42.680;23.364;2023-05-02T00:18:24;95437.25;;;12.24;79.57
5691;BME280;2870;42.680;23.364;2023-05-02T00:20:51;95427.47;;;12.25;79.83
5691;BME280;2870;42.680;23.364;2023-05-02T00:23:19;95434.44;;;12.24;79.97
5691;BME280;2870;42.680;23.364;2023-05-02T00:25:45;95437.25;;;12.09;80.46
5691;BME280;2870;42.680;23.364;2023-05-02T00:28:12;95443.06;;;12.34;79.51
5691;BME280;2870;42.680;23.364;2023-05-02T00:30:42;95442.16;;;12.08;80.57
5691;BME280;2870;42.680;23.364;2023-05-02T00:33:09;95442.13;;;12.24;80.09
5691;BME280;2870;42.680;23.364;2023-05-02T00:35:37;95451.69;;;12.13;80.58
5691;BME280;2870;42.680;23.364;2023-05-02T00:38:04;95449.06;;;12.07;80.81
5691;BME280;2870;42.680;23.364;2023-05-02T00:40:41;95449.25;;;12.17;80.04
5691;BME280;2870;42.680;23.364;2023-05-02T00:43:08;95452.06;;;12.32;79.10
5691;BME280;2870;42.680;23.364;2023-05-02T00:45:35;95455.03;;;12.42;79.20
5691;BME280;2870;42.680;23.364;2023-05-02T00:48:02;95462.53;;;12.39;79.14
5691;BME280;2870;42.680;23.364;2023-05-02T00:50:29;95462.19;;;12.43;79.15
5691;BME280;2870;42.680;23.364;2023-05-02T00:52:59;95464.22;;;12.50;78.80
5691;BME280;2870;42.680;23.364;2023-05-02T00:55:26;95469.47;;;12.61;79.01
5691;BME280;2870;42.680;23.364;2023-05-02T00:57:55;95462.69;;;12.64;78.62
5691;BME280;2870;42.680;23.364;2023-05-02T01:00:24;95470.22;;;12.62;78.32
5691;BME280;2870;42.680;23.364;2023-05-02T01:03:02;95453.13;;;12.67;78.62
5691;BME280;2870;42.680;23.364;2023-05-02T01:05:40;95454.41;;;12.74;78.00
5691;BME280;2870;42.680;23.364;2023-05-02T01:08:12;95457.09;;;12.49;79.37
5691;BME280;2870;42.680;23.364;2023-05-02T01:10:51;95450.28;;;12.75;78.57
5691;BME280;2870;42.680;23.364;2023-05-02T01:13:27;95458.19;;;12.77;78.25
5691;BME280;2870;42.680;23.364;2023-05-02T01:15:56;95462.88;;;12.74;79.22
5691;BME280;2870;42.680;23.364;2023-05-02T01:18:30;95458.38;;;12.63;79.57
5691;BME280;2870;42.680;23.364;2023-05-02T01:21:00;95460.41;;;12.70;78.99
5691;BME280;2870;42.680;23.364;2023-05-02T01:23:37;95463.63;;;12.74;79.14
5691;BME280;2870;42.680;23.364;2023-05-02T01:26:15;95460.78;;;12.74;79.41
5691;BME280;2870;42.680;23.364;2023-05-02T01:28:54;95461.94;;;12.64;80.34
5691;BME280;2870;42.680;23.364;2023-05-02T01:31:23;95457.44;;;12.68;79.47
5691;BME280;2870;42.680;23.364;2023-05-02T01:33:52;95455.94;;;12.67;79.61
5691;BME280;2870;42.680;23.364;2023-05-02T01:36:21;95452.97;;;12.50;80.47
5691;BME280;2870;42.680;23.364;2023-05-02T01:38:49;95455.56;;;12.63;80.16
5691;BME280;2870;42.680;23.364;2023-05-02T01:41:17;95458.78;;;12.52;80.86
5691;BME280;2870;42.680;23.364;2023-05-02T01:43:44;95463.09;;;12.61;80.40
5691;BME280;2870;42.680;23.364;2023-05-02T01:46:14;95462.00;;;12.49;80.81
5691;BME280;2870;42.680;23.364;2023-05-02T01:48:43;95469.47;;;12.54;80.88
5691;BME280;2870;42.680;23.364;2023-05-02T01:51:14;95462.94;;;12.28;82.00
5691;BME280;2870;42.680;23.364;2023-05-02T01:53:43;95464.06;;;12.48;81.65
5691;BME280;2870;42.680;23.364;2023-05-02T01:56:11;95461.97;;;12.41;82.00
5691;BME280;2870;42.680;23.364;2023-05-02T01:58:40;95473.22;;;12.41;82.22
5691;BME280;2870;42.680;23.364;2023-05-02T02:01:08;95459.16;;;12.41;82.51
5691;BME280;2870;42.680;23.364;2023-05-02T02:03:37;95456.38;;;12.26;82.69
5691;BME280;2870;42.680;23.364;2023-05-02T02:06:04;95454.84;;;12.40;82.54
5691;BME280;2870;42.680;23.364;2023-05-02T02:08:32;95457.09;;;12.49;81.88
5691;BME280;2870;42.680;23.364;2023-05-02T02:11:03;95445.84;;;12.41;82.42
5691;BME280;2870;42.680;23.364;2023-05-02T02:13:38;95443.97;;;12.44;82.32
5691;BME280;2870;42.680;23.364;2023-05-02T02:16:07;95449.78;;;12.46;82.31
5691;BME280;2870;42.680;23.364;2023-05-02T02:18:38;95451.47;;;12.41;82.04
5691;BME280;2870;42.680;23.364;2023-05-02T02:21:06;95452.63;;;12.38;81.98
5691;BME280;2870;42.680;23.364;2023-05-02T02:23:35;95452.97;;;12.50;81.83
5691;BME280;2870;42.680;23.364;2023-05-02T02:26:04;95455.63;;;12.48;82.15
5691;BME280;2870;42.680;23.364;2023-05-02T02:28:33;95454.84;;;12.40;82.15
5691;BME280;2870;42.680;23.364;2023-05-02T02:31:00;95457.28;;;12.36;82.52
5691;BME280;2870;42.680;23.364;2023-05-02T02:33:29;95458.63;;;12.27;82.72
5691;BME280;2870;42.680;23.364;2023-05-02T02:36:03;95457.50;;;12.38;82.55
5691;BME280;2870;42.680;23.364;2023-05-02T02:38:37;95461.25;;;12.33;82.63
5691;BME280;2870;42.680;23.364;2023-05-02T02:41:12;95452.94;;;12.58;81.98
5691;BME280;2870;42.680;23.364;2023-05-02T02:43:47;95457.41;;;12.84;81.10
5691;BME280;2870;42.680;23.364;2023-05-02T02:46:27;95463.03;;;12.76;81.00
5691;BME280;2870;42.680;23.364;2023-05-02T02:49:01;95463.03;;;12.76;81.23
5691;BME280;2870;42.680;23.364;2023-05-02T02:51:43;95464.19;;;12.73;81.27
5691;BME280;2870;42.680;23.364;2023-05-02T02:54:15;95461.41;;;12.50;82.93
5691;BME280;2870;42.680;23.364;2023-05-02T02:56:47;95468.38;;;12.34;83.83
5691;BME280;2870;42.680;23.364;2023-05-02T02:59:26;95472.50;;;12.17;84.81
5691;BME280;2870;42.680;23.364;2023-05-02T03:02:08;95466.13;;;12.02;84.22
5691;BME280;2870;42.680;23.364;2023-05-02T03:04:40;95467.63;;;12.18;84.03
5691;BME280;2870;42.680;23.364;2023-05-02T03:07:09;95470.63;;;12.28;84.44
5691;BME280;2870;42.680;23.364;2023-05-02T03:09:42;95476.25;;;12.28;83.81
5691;BME280;2870;42.680;23.364;2023-05-02T03:12:09;95479.63;;;12.26;84.27
5691;BME280;2870;42.680;23.364;2023-05-02T03:14:38;95482.06;;;12.22;85.02
5691;BME280;2870;42.680;23.364;2023-05-02T03:17:05;95490.13;;;12.10;86.10
5691;BME280;2870;42.680;23.364;2023-05-02T03:19:32;95489.38;;;12.17;85.60
5691;BME280;2870;42.680;23.364;2023-05-02T03:21:59;95494.63;;;12.29;84.88
5691;BME280;2870;42.680;23.364;2023-05-02T03:24:27;95497.25;;;12.50;82.07
5691;BME280;2870;42.680;23.364;2023-05-02T03:26:54;95507.38;;;12.45;82.72
5691;BME280;2870;42.680;23.364;2023-05-02T03:29:21;95499.88;;;12.32;82.90
5691;BME280;2870;42.680;23.364;2023-05-02T03:31:48;95502.31;;;12.36;83.43
5691;BME280;2870;42.680;23.364;2023-05-02T03:34:15;95510.19;;;12.45;85.01
5691;BME280;2870;42.680;23.364;2023-05-02T03:36:43;95501.75;;;12.30;83.97
5691;BME280;2870;42.680;23.364;2023-05-02T03:39:10;95501.19;;;12.24;85.01
5691;BME280;2870;42.680;23.364;2023-05-02T03:41:39;95499.88;;;12.17;84.22
5691;BME280;2870;42.680;23.364;2023-05-02T03:44:06;95502.31;;;12.20;84.14
5691;BME280;2870;42.680;23.364;2023-05-02T03:46:33;95511.88;;;12.25;83.74
5691;BME280;2870;42.680;23.364;2023-05-02T03:49:00;95508.88;;;12.31;82.93
5691;BME280;2870;42.680;23.364;2023-05-02T03:51:27;95507.75;;;12.26;83.15
5691;BME280;2870;42.680;23.364;2023-05-02T03:53:53;95505.69;;;12.04;84.27
5691;BME280;2870;42.680;23.364;2023-05-02T03:56:20;95512.78;;;12.12;83.90
5691;BME280;2870;42.680;23.364;2023-05-02T03:58:49;95504.75;;;12.32;83.03
5691;BME280;2870;42.680;23.364;2023-05-02T04:01:15;95499.88;;;12.17;83.36
5691;BME280;2870;42.680;23.364;2023-05-02T04:03:42;95507.75;;;12.11;83.98
5691;BME280;2870;42.680;23.364;2023-05-02T04:06:09;95494.25;;;12.09;83.64
5691;BME280;2870;42.680;23.364;2023-05-02T04:08:37;95500.81;;;12.35;82.57
5691;BME280;2870;42.680;23.364;2023-05-02T04:11:04;95508.50;;;12.34;82.93
5691;BME280;2870;42.680;23.364;2023-05-02T04:13:30;95497.22;;;12.19;82.88
5691;BME280;2870;42.680;23.364;2023-05-02T04:15:59;95510.91;;;12.07;83.26
5691;BME280;2870;42.680;23.364;2023-05-02T04:18:25;95516.00;;;12.24;82.47
5691;BME280;2870;42.680;23.364;2023-05-02T04:20:52;95498.75;;;12.28;81.85
5691;BME280;2870;42.680;23.364;2023-05-02T04:23:19;95506.59;;;12.52;80.97
5691;BME280;2870;42.680;23.364;2023-05-02T04:25:52;95504.94;;;12.41;80.71
5691;BME280;2870;42.680;23.364;2023-05-02T04:28:19;95512.78;;;12.73;78.92
5691;BME280;2870;42.680;23.364;2023-05-02T04:30:46;95511.47;;;12.74;78.51
5691;BME280;2870;42.680;23.364;2023-05-02T04:33:15;95510.75;;;12.51;78.24
5691;BME280;2870;42.680;23.364;2023-05-02T04:35:43;95516.00;;;12.47;79.04
5691;BME280;2870;42.680;23.364;2023-05-02T04:38:10;95523.09;;;12.79;77.86
5691;BME280;2870;42.680;23.364;2023-05-02T04:40:36;95515.44;;;12.71;77.66
5691;BME280;2870;42.680;23.364;2023-05-02T04:43:03;95520.28;;;12.79;77.80
5691;BME280;2870;42.680;23.364;2023-05-02T04:45:30;95513.72;;;12.84;77.50
5691;BME280;2870;42.680;23.364;2023-05-02T04:47:57;95517.44;;;12.94;76.78
5691;BME280;2870;42.680;23.364;2023-05-02T04:50:25;95521.69;;;13.10;75.85
5691;BME280;2870;42.680;23.364;2023-05-02T04:52:53;95520.78;;;13.23;75.27
5691;BME280;2870;42.680;23.364;2023-05-02T04:55:20;95518.31;;;13.19;74.93
5691;BME280;2870;42.680;23.364;2023-05-02T04:57:47;95512.28;;;13.31;74.65
5691;BME280;2870;42.680;23.364;2023-05-02T05:00:14;95519.38;;;13.47;75.02
5691;BME280;2870;42.680;23.364;2023-05-02T05:02:41;95519.75;;;13.43;72.92
5691;BME280;2870;42.680;23.364;2023-05-02T05:05:08;95517.22;;;13.63;72.04
5691;BME280;2870;42.680;23.364;2023-05-02T05:07:36;95521.59;;;13.89;70.84
5691;BME280;2870;42.680;23.364;2023-05-02T05:10:04;95530.63;;;13.87;71.26
5691;BME280;2870;42.680;23.364;2023-05-02T05:12:32;95524.63;;;13.83;70.55
5691;BME280;2870;42.680;23.364;2023-05-02T05:14:59;95519.94;;;13.45;71.57
5691;BME280;2870;42.680;23.364;2023-05-02T05:17:25;95525.16;;;13.89;70.32
5691;BME280;2870;42.680;23.364;2023-05-02T05:19:52;95531.66;;;13.74;70.36
5691;BME280;2870;42.680;23.364;2023-05-02T05:22:19;95517.63;;;13.92;70.23
5691;BME280;2870;42.680;23.364;2023-05-02T05:24:51;95527.84;;;13.79;69.91
5691;BME280;2870;42.680;23.364;2023-05-02T05:27:19;95527.94;;;13.97;68.16
5691;BME280;2870;42.680;23.364;2023-05-02T05:29:45;95531.09;;;14.01;68.30
5691;BME280;2870;42.680;23.364;2023-05-02T05:32:12;95532.38;;;13.75;67.94
5691;BME280;2870;42.680;23.364;2023-05-02T05:34:39;95537.22;;;13.90;68.40
5691;BME280;2870;42.680;23.364;2023-05-02T05:37:06;95536.06;;;14.18;67.24
5691;BME280;2870;42.680;23.364;2023-05-02T05:39:33;95538.03;;;14.08;66.02
5691;BME280;2870;42.680;23.364;2023-05-02T05:42:01;95541.19;;;14.12;65.72
5691;BME280;2870;42.680;23.364;2023-05-02T05:44:28;95542.28;;;13.84;66.69
5691;BME280;2870;42.680;23.364;2023-05-02T05:46:55;95543.63;;;13.83;67.47
5691;BME280;2870;42.680;23.364;2023-05-02T05:49:22;95542.66;;;13.88;65.81
5691;BME280;2870;42.680;23.364;2023-05-02T05:51:49;95550.41;;;14.12;65.71
5691;BME280;2870;42.680;23.364;2023-05-02T05:54:17;95543.84;;;14.35;65.47
5691;BME280;2870;42.680;23.364;2023-05-02T05:56:44;95548.88;;;14.19;65.33
5691;BME280;2870;42.680;23.364;2023-05-02T05:59:12;95547.47;;;14.02;65.31
5691;BME280;2870;42.680;23.364;2023-05-02T06:01:39;95540.19;;;14.24;65.17
5691;BME280;2870;42.680;23.364;2023-05-02T06:04:06;95550.81;;;14.66;64.29
5691;BME280;2870;42.680;23.364;2023-05-02T06:06:33;95557.00;;;14.40;64.07
5691;BME280;2870;42.680;23.364;2023-05-02T06:09:00;95563.03;;;14.86;63.11
5691;BME280;2870;42.680;23.364;2023-05-02T06:11:27;95544.13;;;14.54;63.88
5691;BME280;2870;42.680;23.364;2023-05-02T06:13:54;95563.34;;;14.98;63.63
5691;BME280;2870;42.680;23.364;2023-05-02T06:16:23;95556.28;;;15.06;63.29
5691;BME280;2870;42.680;23.364;2023-05-02T06:18:50;95557.38;;;15.46;62.68
5691;BME280;2870;42.680;23.364;2023-05-02T06:21:18;95558.63;;;15.70;59.12
5691;BME280;2870;42.680;23.364;2023-05-02T06:23:44;95557.53;;;15.48;57.83
5691;BME280;2870;42.680;23.364;2023-05-02T06:26:11;95552.97;;;15.70;58.17
5691;BME280;2870;42.680;23.364;2023-05-02T06:28:38;95549.72;;;15.73;56.65
5691;BME280;2870;42.680;23.364;2023-05-02T06:31:05;95544.41;;;15.60;56.79
5691;BME280;2870;42.680;23.364;2023-05-02T06:33:33;95547.72;;;15.83;55.25
5691;BME280;2870;42.680;23.364;2023-05-02T06:36:01;95555.31;;;16.08;55.20
5691;BME280;2870;42.680;23.364;2023-05-02T06:38:29;95557.22;;;16.32;54.93
5691;BME280;2870;42.680;23.364;2023-05-02T06:40:58;95549.69;;;15.90;55.22
5691;BME280;2870;42.680;23.364;2023-05-02T06:43:24;95529.81;;;16.08;55.32
5691;BME280;2870;42.680;23.364;2023-05-02T06:45:52;95548.78;;;16.15;55.64
5691;BME280;2870;42.680;23.364;2023-05-02T06:48:20;95552.94;;;15.87;55.36
5691;BME280;2870;42.680;23.364;2023-05-02T06:50:51;95549.03;;;16.36;53.94
5691;BME280;2870;42.680;23.364;2023-05-02T06:53:18;95558.50;;;16.22;52.97
5691;BME280;2870;42.680;23.364;2023-05-02T06:55:45;95540.00;;;16.21;53.70
5691;BME280;2870;42.680;23.364;2023-05-02T06:58:13;95560.84;;;16.42;53.76
5691;BME280;2870;42.680;23.364;2023-05-02T07:00:40;95525.91;;;16.30;52.91
5691;BME280;2870;42.680;23.364;2023-05-02T07:03:07;95537.06;;;16.65;53.53
5691;BME280;2870;42.680;23.364;2023-05-02T07:05:35;95536.13;;;16.89;50.96
5691;BME280;2870;42.680;23.364;2023-05-02T07:08:04;95537.38;;;17.15;49.89
5691;BME280;2870;42.680;23.364;2023-05-02T07:10:31;95537.97;;;17.23;49.40
5691;BME280;2870;42.680;23.364;2023-05-02T07:12:57;95538.44;;;17.59;49.12
5691;BME280;2870;42.680;23.364;2023-05-02T07:15:24;95549.19;;;17.51;47.94
5691;BME280;2870;42.680;23.364;2023-05-02T07:17:51;95541.28;;;17.88;47.35
5691;BME280;2870;42.680;23.364;2023-05-02T07:20:18;95538.00;;;17.82;47.19
5691;BME280;2870;42.680;23.364;2023-05-02T07:22:45;95544.25;;;17.51;47.24
5691;BME280;2870;42.680;23.364;2023-05-02T07:25:13;95551.28;;;17.98;48.31
5691;BME280;2870;42.680;23.364;2023-05-02T07:27:40;95556.91;;;18.18;46.52
5691;BME280;2870;42.680;23.364;2023-05-02T07:30:07;95543.88;;;18.75;46.60
5691;BME280;2870;42.680;23.364;2023-05-02T07:32:34;95544.19;;;18.60;46.81
5691;BME280;2870;42.680;23.364;2023-05-02T07:35:01;95543.19;;;18.55;45.37
5691;BME280;2870;42.680;23.364;2023-05-02T07:37:31;95544.59;;;19.06;44.47
5691;BME280;2870;42.680;23.364;2023-05-02T07:39:58;95551.53;;;19.46;43.05
5691;BME280;2870;42.680;23.364;2023-05-02T07:42:29;95547.56;;;19.73;42.14
5691;BME280;2870;42.680;23.364;2023-05-02T07:44:56;95548.72;;;19.79;41.52
5691;BME280;2870;42.680;23.364;2023-05-02T07:47:23;95561.41;;;19.67;41.17
5691;BME280;2870;42.680;23.364;2023-05-02T07:49:51;95551.44;;;19.56;41.38
5691;BME280;2870;42.680;23.364;2023-05-02T07:52:18;95560.28;;;19.93;41.99
5691;BME280;2870;42.680;23.364;2023-05-02T07:54:45;95553.22;;;19.94;41.25
5691;BME280;2870;42.680;23.364;2023-05-02T07:57:13;95563.56;;;20.68;39.73
5691;BME280;2870;42.680;23.364;2023-05-02T07:59:41;95565.53;;;20.53;39.99
5691;BME280;2870;42.680;23.364;2023-05-02T08:02:08;95557.09;;;21.37;39.35
5691;BME280;2870;42.680;23.364;2023-05-02T08:04:35;95559.41;;;22.02;38.60
5691;BME280;2870;42.680;23.364;2023-05-02T08:07:02;95557.34;;;21.41;38.13
5691;BME280;2870;42.680;23.364;2023-05-02T08:09:29;95554.25;;;21.26;38.18
5691;BME280;2870;42.680;23.364;2023-05-02T08:11:56;95561.53;;;21.52;38.53
5691;BME280;2870;42.680;23.364;2023-05-02T08:14:22;95562.31;;;22.15;37.13
5691;BME280;2870;42.680;23.364;2023-05-02T08:16:51;95566.66;;;22.42;35.56
5691;BME280;2870;42.680;23.364;2023-05-02T08:19:17;95558.91;;;22.84;36.05
5691;BME280;2870;42.680;23.364;2023-05-02T08:21:44;95549.41;;;22.14;36.75
5691;BME280;2870;42.680;23.364;2023-05-02T08:24:11;95557.78;;;23.02;35.81
5691;BME280;2870;42.680;23.364;2023-05-02T08:26:38;95567.53;;;23.11;34.81
5691;BME280;2870;42.680;23.364;2023-05-02T08:29:04;95554.63;;;22.57;34.93
5691;BME280;2870;42.680;23.364;2023-05-02T08:31:31;95550.06;;;23.33;35.14
5691;BME280;2870;42.680;23.364;2023-05-02T08:33:59;95558.53;;;23.31;35.38
5691;BME280;2870;42.680;23.364;2023-05-02T08:36:26;95545.25;;;24.08;33.53
5691;BME280;2870;42.680;23.364;2023-05-02T08:38:53;95569.78;;;23.97;33.46
5691;BME280;2870;42.680;23.364;2023-05-02T08:41:21;95559.13;;;23.70;33.19
5691;BME280;2870;42.680;23.364;2023-05-02T08:43:48;95560.75;;;24.32;33.89
5691;BME280;2870;42.680;23.364;2023-05-02T08:46:16;95566.28;;;24.90;32.02
5691;BME280;2870;42.680;23.364;2023-05-02T08:48:44;95540.00;;;24.48;31.88
5691;BME280;2870;42.680;23.364;2023-05-02T08:51:14;95551.97;;;24.28;32.81
5691;BME280;2870;42.680;23.364;2023-05-02T08:53:42;95544.94;;;23.45;33.12
5691;BME280;2870;42.680;23.364;2023-05-02T08:56:11;95541.25;;;23.28;33.54
5691;BME280;2870;42.680;23.364;2023-05-02T08:58:39;95538.38;;;24.29;32.85
5691;BME280;2870;42.680;23.364;2023-05-02T09:01:09;95535.66;;;24.33;33.18
5691;BME280;2870;42.680;23.364;2023-05-02T09:03:36;95537.72;;;23.58;32.68
5691;BME280;2870;42.680;23.364;2023-05-02T09:06:07;95544.44;;;23.07;33.71
5691;BME280;2870;42.680;23.364;2023-05-02T09:08:36;95542.94;;;23.34;33.32
5691;BME280;2870;42.680;23.364;2023-05-02T09:11:03;95542.31;;;23.08;33.25
5691;BME280;2870;42.680;23.364;2023-05-02T09:13:32;95526.06;;;22.71;34.02
5691;BME280;2870;42.680;23.364;2023-05-02T09:16:01;95506.78;;;24.13;33.21
5691;BME280;2870;42.680;23.364;2023-05-02T09:18:30;95527.97;;;24.22;32.49
5691;BME280;2870;42.680;23.364;2023-05-02T09:20:58;95533.91;;;23.53;31.93
5691;BME280;2870;42.680;23.364;2023-05-02T09:23:37;95531.19;;;23.27;32.84
5691;BME280;2870;42.680;23.364;2023-05-02T09:26:16;95517.84;;;23.18;33.62
5691;BME280;2870;42.680;23.364;2023-05-02T09:28:44;95515.00;;;22.38;33.61
5691;BME280;2870;42.680;23.364;2023-05-02T09:31:13;95526.94;;;23.28;32.81
5691;BME280;2870;42.680;23.364;2023-05-02T09:33:41;95521.50;;;23.62;31.83
5691;BME280;2870;42.680;23.364;2023-05-02T09:36:10;95527.66;;;24.00;32.01
5691;BME280;2870;42.680;23.364;2023-05-02T09:38:40;95525.47;;;23.85;31.90
5691;BME280;2870;42.680;23.364;2023-05-02T09:41:07;95517.91;;;23.48;33.30
5691;BME280;2870;42.680;23.364;2023-05-02T09:43:34;95511.09;;;23.69;32.22
5691;BME280;2870;42.680;23.364;2023-05-02T09:46:03;95522.84;;;23.75;31.84
5691;BME280;2870;42.680;23.364;2023-05-02T09:48:31;95516.44;;;24.20;31.24
5691;BME280;2870;42.680;23.364;2023-05-02T09:50:59;95505.22;;;23.37;32.40
5691;BME280;2870;42.680;23.364;2023-05-02T09:53:26;95496.25;;;23.59;32.57
5691;BME280;2870;42.680;23.364;2023-05-02T09:56:02;95509.38;;;24.52;30.64
5691;BME280;2870;42.680;23.364;2023-05-02T09:58:29;95509.09;;;23.71;31.13
5691;BME280;2870;42.680;23.364;2023-05-02T10:00:57;95498.41;;;23.88;31.22
5691;BME280;2870;42.680;23.364;2023-05-02T10:03:25;95500.94;;;24.72;30.42
5691;BME280;2870;42.680;23.364;2023-05-02T10:05:53;95501.09;;;23.84;30.38
5691;BME280;2870;42.680;23.364;2023-05-02T10:08:21;95472.66;;;24.49;29.81
5691;BME280;2870;42.680;23.364;2023-05-02T10:10:53;95490.78;;;24.69;30.08
5691;BME280;2870;42.680;23.364;2023-05-02T10:13:23;95480.00;;;24.22;29.46
5691;BME280;2870;42.680;23.364;2023-05-02T10:15:58;95493.94;;;24.14;30.06
5691;BME280;2870;42.680;23.364;2023-05-02T10:18:27;95486.06;;;24.44;29.32
5691;BME280;2870;42.680;23.364;2023-05-02T10:20:57;95489.47;;;24.88;29.09
5691;BME280;2870;42.680;23.364;2023-05-02T10:23:28;95483.59;;;23.77;30.35
5691;BME280;2870;42.680;23.364;2023-05-02T10:25:57;95481.38;;;24.21;29.63
5691;BME280;2870;42.680;23.364;2023-05-02T10:28:27;95481.28;;;24.19;31.02
5691;BME280;2870;42.680;23.364;2023-05-02T10:30:54;95477.59;;;24.96;30.13
5691;BME280;2870;42.680;23.364;2023-05-02T10:33:22;95485.72;;;26.02;29.26
5691;BME280;2870;42.680;23.364;2023-05-02T10:35:49;95488.84;;;25.90;27.97
5691;BME280;2870;42.680;23.364;2023-05-02T10:38:18;95468.31;;;25.29;29.41
5691;BME280;2870;42.680;23.364;2023-05-02T10:40:54;95478.16;;;25.75;29.05
5691;BME280;2870;42.680;23.364;2023-05-02T10:43:24;95457.69;;;25.67;27.37
5691;BME280;2870;42.680;23.364;2023-05-02T10:45:53;95461.69;;;24.93;29.45
5691;BME280;2870;42.680;23.364;2023-05-02T10:48:21;95455.69;;;24.87;29.28
5691;BME280;2870;42.680;23.364;2023-05-02T10:50:50;95451.19;;;24.50;30.75
5691;BME280;2870;42.680;23.364;2023-05-02T10:53:31;95450.72;;;23.35;30.69
5691;BME280;2870;42.680;23.364;2023-05-02T10:56:16;95451.22;;;22.88;31.31
5691;BME280;2870;42.680;23.364;2023-05-02T10:58:43;95446.28;;;23.18;32.21
5691;BME280;2870;42.680;23.364;2023-05-02T11:01:37;95444.19;;;23.62;31.11
5691;BME280;2870;42.680;23.364;2023-05-02T11:04:06;95455.13;;;22.95;31.81
5691;BME280;2870;42.680;23.364;2023-05-02T11:06:34;95429.47;;;22.83;32.65
5691;BME280;2870;42.680;23.364;2023-05-02T11:09:34;95449.25;;;22.38;32.36
5691;BME280;2870;42.680;23.364;2023-05-02T11:12:01;95446.66;;;22.16;33.16
5691;BME280;2870;42.680;23.364;2023-05-02T11:14:46;95433.22;;;21.54;33.74
5691;BME280;2870;42.680;23.364;2023-05-02T11:17:15;95431.72;;;21.53;34.06
5691;BME280;2870;42.680;23.364;2023-05-02T11:22:50;95425.22;;;21.39;34.08
5691;BME280;2870;42.680;23.364;2023-05-02T11:25:34;95433.63;;;21.74;33.71
5691;BME280;2870;42.680;23.364;2023-05-02T11:28:01;95422.06;;;21.72;33.95
5691;BME280;2870;42.680;23.364;2023-05-02T11:30:43;95428.59;;;22.26;33.22
5691;BME280;2870;42.680;23.364;2023-05-02T11:33:20;95428.59;;;22.39;33.55
5691;BME280;2870;42.680;23.364;2023-05-02T11:35:47;95388.91;;;21.53;33.61
5691;BME280;2870;42.680;23.364;2023-05-02T11:38:15;95414.88;;;21.96;34.24
5691;BME280;2870;42.680;23.364;2023-05-02T11:40:53;95409.00;;;21.55;34.16
5691;BME280;2870;42.680;23.364;2023-05-02T11:43:21;95419.56;;;21.53;33.96
5691;BME280;2870;42.680;23.364;2023-05-02T11:45:49;95390.59;;;21.45;34.24
5691;BME280;2870;42.680;23.364;2023-05-02T11:48:20;95408.19;;;21.66;34.44
5691;BME280;2870;42.680;23.364;2023-05-02T11:50:48;95394.13;;;21.57;34.56
5691;BME280;2870;42.680;23.364;2023-05-02T11:53:18;95396.25;;;21.95;34.16
5691;BME280;2870;42.680;23.364;2023-05-02T11:55:47;95398.00;;;21.89;35.29
5691;BME280;2870;42.680;23.364;2023-05-02T11:58:16;95403.53;;;21.59;34.88
5691;BME280;2870;42.680;23.364;2023-05-02T12:00:44;95398.00;;;21.12;34.75
5691;BME280;2870;42.680;23.364;2023-05-02T12:03:34;95389.03;;;21.55;35.59
5691;BME280;2870;42.680;23.364;2023-05-02T12:06:08;95397.25;;;21.75;34.95
5691;BME280;2870;42.680;23.364;2023-05-02T12:08:36;95384.69;;;21.80;34.33
5691;BME280;2870;42.680;23.364;2023-05-02T12:11:03;95389.34;;;21.87;34.47
5691;BME280;2870;42.680;23.364;2023-05-02T12:13:30;95382.25;;;21.49;34.10
5691;BME280;2870;42.680;23.364;2023-05-02T12:15:57;95376.50;;;21.23;35.07
5691;BME280;2870;42.680;23.364;2023-05-02T12:18:25;95381.03;;;21.65;34.04
5691;BME280;2870;42.680;23.364;2023-05-02T12:20:54;95368.50;;;21.45;33.86
5691;BME280;2870;42.680;23.364;2023-05-02T12:23:23;95368.69;;;21.75;35.15
5691;BME280;2870;42.680;23.364;2023-05-02T12:25:51;95369.59;;;21.65;34.15
5691;BME280;2870;42.680;23.364;2023-05-02T12:28:19;95379.16;;;21.84;33.97
5691;BME280;2870;42.680;23.364;2023-05-02T12:30:48;95370.00;;;21.60;33.61
5691;BME280;2870;42.680;23.364;2023-05-02T12:33:16;95367.53;;;21.80;33.17
5691;BME280;2870;42.680;23.364;2023-05-02T12:35:43;95357.13;;;21.59;32.96
5691;BME280;2870;42.680;23.364;2023-05-02T12:38:14;95352.69;;;21.30;33.37
5691;BME280;2870;42.680;23.364;2023-05-02T12:40:49;95349.66;;;21.40;33.44
5691;BME280;2870;42.680;23.364;2023-05-02T12:43:16;95307.81;;;21.45;33.41
5691;BME280;2870;42.680;23.364;2023-05-02T12:45:43;95335.09;;;22.01;32.13
5691;BME280;2870;42.680;23.364;2023-05-02T12:48:23;95335.50;;;21.95;32.60
5691;BME280;2870;42.680;23.364;2023-05-02T12:50:50;95305.34;;;21.13;33.17
5691;BME280;2870;42.680;23.364;2023-05-02T12:53:36;95327.41;;;21.64;32.85
5691;BME280;2870;42.680;23.364;2023-05-02T12:56:04;95336.72;;;21.64;33.21
5691;BME280;2870;42.680;23.364;2023-05-02T12:58:39;95325.13;;;21.88;32.58
5691;BME280;2870;42.680;23.364;2023-05-02T13:01:07;95332.44;;;21.91;32.50
5691;BME280;2870;42.680;23.364;2023-05-02T13:03:34;95340.94;;;22.03;32.45
5691;BME280;2870;42.680;23.364;2023-05-02T13:06:01;95334.91;;;21.57;32.67
5691;BME280;2870;42.680;23.364;2023-05-02T13:08:29;95332.41;;;21.38;33.30
5691;BME280;2870;42.680;23.364;2023-05-02T13:10:57;95327.09;;;21.32;32.86
5691;BME280;2870;42.680;23.364;2023-05-02T13:13:23;95326.94;;;21.42;32.82
5691;BME280;2870;42.680;23.364;2023-05-02T13:15:51;95334.59;;;21.51;33.03
5691;BME280;2870;42.680;23.364;2023-05-02T13:18:17;95336.34;;;21.19;33.56
5691;BME280;2870;42.680;23.364;2023-05-02T13:20:44;95342.91;;;21.22;33.13
5691;BME280;2870;42.680;23.364;2023-05-02T13:23:11;95343.03;;;21.24;33.05